Time;durP1;ratioP1;P1;durP2;ratioP2;P2;SDS_P1;SDS_P2;PMS_P1;PMS_P2;Temp;Humidity;BMP_temperature;BMP_pressure;BME280_temperature;BME280_humidity;BME280_pressure;Samples;Min_cycle;Max_cycle;Signal;HPM_P1;HPM_P2
2023/05/13 00:00:13;;;;;;;2.63;0.68;;;9.30;85.60;;;;;;5030061;28;20667;-78
2023/05/13 00:02:39;;;;;;;1.35;0.70;;;9.30;85.20;;;;;;5037821;28;20179;-78
2023/05/13 00:05:05;;;;;;;0.57;0.57;;;9.30;83.70;;;;;;5027560;28;20184;-79
2023/05/13 00:07:30;;;;;;;0.70;0.70;;;9.30;83.90;;;;;;5029760;28;20699;-78
2023/05/13 00:09:56;;;;;;;0.57;0.57;;;9.30;84.00;;;;;;5031677;28;20192;-78
2023/05/13 00:12:22;;;;;;;0.55;0.50;;;9.30;84.10;;;;;;5027611;28;20223;-78
2023/05/13 00:14:47;;;;;;;0.60;0.50;;;9.30;82.60;;;;;;5038431;28;20188;-78
2023/05/13 00:17:13;;;;;;;1.95;0.75;;;9.30;81.50;;;;;;5030033;28;20185;-78
2023/05/13 00:19:39;;;;;;;0.55;0.55;;;9.40;81.90;;;;;;5027726;28;20769;-78
2023/05/13 00:22:05;;;;;;;0.88;0.88;;;9.40;82.40;;;;;;5036182;28;20184;-78
2023/05/13 00:24:31;;;;;;;0.57;0.57;;;9.50;81.50;;;;;;5034793;28;20203;-78
2023/05/13 00:26:57;;;;;;;0.70;0.70;;;9.50;82.30;;;;;;5028541;28;20180;-78
2023/05/13 00:29:22;;;;;;;0.50;0.50;;;9.60;82.50;;;;;;5032780;28;20640;-78
2023/05/13 00:31:48;;;;;;;0.70;0.70;;;9.60;81.80;;;;;;5031007;28;20180;-78
2023/05/13 00:34:14;;;;;;;0.50;0.50;;;9.60;82.10;;;;;;5031283;28;20184;-78
2023/05/13 00:36:39;;;;;;;0.65;0.60;;;9.70;82.40;;;;;;5030222;28;20199;-78
2023/05/13 00:39:05;;;;;;;2.10;0.73;;;9.70;83.00;;;;;;5035836;28;20747;-78
2023/05/13 00:41:30;;;;;;;2.33;0.60;;;9.60;83.60;;;;;;5037344;28;20913;-77
2023/05/13 00:43:56;;;;;;;0.80;0.80;;;9.60;83.10;;;;;;5031714;28;20182;-77
2023/05/13 00:46:23;;;;;;;0.63;0.60;;;9.70;82.70;;;;;;5032206;28;20188;-77
2023/05/13 00:48:49;;;;;;;0.60;0.60;;;9.70;82.70;;;;;;5029149;28;20184;-77
2023/05/13 00:51:15;;;;;;;0.50;0.50;;;9.70;82.90;;;;;;5030575;28;21102;-77
2023/05/13 00:53:42;;;;;;;0.57;0.57;;;9.70;85.20;;;;;;5027889;28;20184;-77
2023/05/13 00:56:07;;;;;;;2.60;1.02;;;9.50;87.40;;;;;;5027654;28;20222;-77
2023/05/13 00:58:34;;;;;;;0.98;0.95;;;9.50;88.70;;;;;;5031203;28;20212;-77
2023/05/13 01:01:17;;;;;;;1.27;1.10;;;9.50;88.10;;;;;;5028568;28;20315;-78
2023/05/13 01:04:02;;;;;;;2.28;1.15;;;9.50;90.30;;;;;;5031206;28;20192;-77
2023/05/13 01:07:01;;;;;;;1.20;1.20;;;9.40;92.00;;;;;;5021849;28;20185;-78
2023/05/13 01:10:05;;;;;;;1.42;1.25;;;9.20;92.50;;;;;;5043226;28;20771;-77
2023/05/13 01:12:35;;;;;;;0.75;0.75;;;9.10;93.50;;;;;;5028441;28;20590;-77
2023/05/13 01:15:05;;;;;;;1.20;1.20;;;8.90;94.30;;;;;;5028246;28;20569;-77
2023/05/13 01:17:41;;;;;;;1.20;1.20;;;8.70;95.40;;;;;;5028404;28;20238;-77
2023/05/13 01:20:07;;;;;;;1.33;1.27;;;8.70;95.50;;;;;;5028526;28;20214;-77
2023/05/13 01:22:33;;;;;;;3.22;1.30;;;8.70;95.70;;;;;;5036416;28;20182;-77
2023/05/13 01:24:59;;;;;;;1.95;1.77;;;8.70;95.90;;;;;;5026031;28;20169;-77
2023/05/13 01:27:25;;;;;;;3.40;1.48;;;8.60;96.70;;;;;;5034525;28;20291;-77
2023/05/13 01:29:51;;;;;;;1.42;1.33;;;8.60;96.80;;;;;;5026922;28;20804;-77
2023/05/13 01:32:17;;;;;;;1.98;1.90;;;8.70;96.80;;;;;;5028968;28;20569;-76
2023/05/13 01:34:44;;;;;;;2.13;1.17;;;8.70;96.50;;;;;;5027221;28;20184;-77
2023/05/13 01:37:10;;;;;;;1.08;1.08;;;8.80;95.50;;;;;;5029771;28;21966;-76
2023/05/13 01:39:39;;;;;;;1.10;1.10;;;8.90;95.20;;;;;;5029268;28;20226;-77
2023/05/13 01:42:05;;;;;;;1.88;1.20;;;9.00;94.50;;;;;;5028531;28;20565;-77
2023/05/13 01:44:31;;;;;;;1.38;1.33;;;9.10;93.70;;;;;;5030856;28;20192;-77
2023/05/13 01:46:56;;;;;;;1.05;1.05;;;9.10;93.60;;;;;;5037433;28;20180;-77
2023/05/13 01:49:22;;;;;;;1.00;1.00;;;9.20;93.60;;;;;;5033325;28;20675;-78
2023/05/13 01:51:48;;;;;;;0.90;0.90;;;9.10;91.00;;;;;;5025655;28;20263;-78
2023/05/13 01:54:13;;;;;;;0.80;0.80;;;9.20;89.50;;;;;;5027857;28;20207;-77
2023/05/13 01:56:39;;;;;;;2.42;1.33;;;9.20;88.10;;;;;;5026097;28;20788;-78
2023/05/13 01:59:04;;;;;;;0.65;0.65;;;9.20;87.00;;;;;;5033331;28;20991;-78
2023/05/13 02:01:30;;;;;;;2.47;0.70;;;9.30;87.40;;;;;;5018859;28;20184;-77
2023/05/13 02:03:58;;;;;;;1.27;0.85;;;9.40;85.20;;;;;;5057534;28;20688;-78
2023/05/13 02:06:24;;;;;;;0.80;0.70;;;9.50;85.50;;;;;;5026103;28;20241;-77
2023/05/13 02:08:49;;;;;;;0.77;0.77;;;9.60;85.90;;;;;;5027125;28;20185;-77
2023/05/13 02:11:15;;;;;;;0.82;0.82;;;9.60;86.10;;;;;;5027488;28;20196;-77
2023/05/13 02:13:41;;;;;;;0.60;0.55;;;9.70;86.20;;;;;;5028154;28;20180;-77
2023/05/13 02:16:06;;;;;;;0.68;0.68;;;9.80;86.20;;;;;;5028043;28;20192;-76
2023/05/13 02:18:32;;;;;;;0.90;0.90;;;9.90;86.10;;;;;;5035811;28;20293;-76
2023/05/13 02:20:58;;;;;;;1.55;0.73;;;9.90;86.00;;;;;;5028750;28;20196;-76
2023/05/13 02:23:23;;;;;;;0.57;0.57;;;10.00;85.90;;;;;;5032491;28;20184;-78
2023/05/13 02:25:49;;;;;;;0.80;0.80;;;10.00;85.90;;;;;;5022475;28;20193;-78
2023/05/13 02:28:14;;;;;;;0.80;0.80;;;10.00;86.00;;;;;;5028205;28;20196;-78
2023/05/13 02:30:40;;;;;;;0.65;0.65;;;10.00;86.00;;;;;;5034318;28;20679;-78
2023/05/13 02:33:06;;;;;;;0.70;0.70;;;10.00;86.00;;;;;;5036942;28;20543;-78
2023/05/13 02:35:32;;;;;;;0.70;0.50;;;10.00;85.60;;;;;;5029785;28;20188;-78
2023/05/13 02:37:57;;;;;;;0.75;0.75;;;10.00;85.30;;;;;;5035155;28;20211;-78
2023/05/13 02:40:23;;;;;;;1.45;0.85;;;10.00;85.30;;;;;;5030556;28;20180;-78
2023/05/13 02:42:49;;;;;;;1.05;0.70;;;9.90;85.60;;;;;;5032183;28;20208;-78
2023/05/13 02:45:15;;;;;;;0.55;0.55;;;9.90;86.10;;;;;;5030479;28;20176;-78
2023/05/13 02:47:41;;;;;;;0.50;0.50;;;9.90;86.40;;;;;;5024844;28;20398;-78
2023/05/13 02:50:08;;;;;;;3.00;1.00;;;9.90;86.50;;;;;;5028223;28;20246;-77
2023/05/13 02:52:35;;;;;;;0.90;0.90;;;9.80;86.70;;;;;;5026750;28;20242;-77
2023/05/13 02:55:05;;;;;;;1.00;1.00;;;9.70;87.60;;;;;;5032456;28;20760;-77
2023/05/13 02:57:31;;;;;;;2.20;1.10;;;9.50;88.90;;;;;;5035307;28;20194;-77
2023/05/13 02:59:57;;;;;;;1.33;1.33;;;9.30;90.00;;;;;;5032986;28;20236;-77
2023/05/13 03:02:23;;;;;;;1.30;1.17;;;9.30;90.50;;;;;;5032531;28;20240;-78
2023/05/13 03:04:49;;;;;;;1.83;1.73;;;9.30;91.30;;;;;;5028964;28;20207;-78
2023/05/13 03:07:14;;;;;;;1.80;1.30;;;9.10;92.60;;;;;;5031700;28;20181;-78
2023/05/13 03:09:41;;;;;;;1.55;1.45;;;9.10;93.00;;;;;;5032676;28;20227;-78
2023/05/13 03:12:07;;;;;;;1.30;1.20;;;9.10;93.20;;;;;;5035800;28;20191;-78
2023/05/13 03:14:35;;;;;;;1.15;1.15;;;9.20;92.10;;;;;;5029860;28;20188;-77
2023/05/13 03:17:04;;;;;;;1.13;1.13;;;9.30;92.00;;;;;;5029382;28;20671;-77
2023/05/13 03:19:30;;;;;;;1.70;1.40;;;9.40;91.30;;;;;;5039885;28;20956;-76
2023/05/13 03:21:56;;;;;;;1.17;1.10;;;9.50;90.70;;;;;;5028658;28;20260;-78
2023/05/13 03:24:22;;;;;;;2.15;1.10;;;9.60;90.60;;;;;;5036567;28;20207;-78
2023/05/13 03:26:48;;;;;;;0.98;0.98;;;9.70;90.40;;;;;;5034788;28;20267;-78
2023/05/13 03:29:14;;;;;;;1.00;1.00;;;9.70;90.30;;;;;;5031224;28;20694;-78
2023/05/13 03:31:40;;;;;;;1.00;1.00;;;9.80;90.00;;;;;;5035538;28;20192;-78
2023/05/13 03:34:05;;;;;;;4.50;1.30;;;9.80;89.80;;;;;;5030704;28;20216;-78
2023/05/13 03:36:31;;;;;;;1.13;1.05;;;9.90;89.80;;;;;;5030767;28;20255;-77
2023/05/13 03:38:57;;;;;;;2.35;1.10;;;9.90;89.80;;;;;;5034607;28;20211;-77
2023/05/13 03:41:22;;;;;;;1.13;1.13;;;10.00;89.80;;;;;;5042528;28;20220;-78
2023/05/13 03:43:48;;;;;;;1.20;1.20;;;10.00;89.80;;;;;;5031862;28;20181;-78
2023/05/13 03:46:14;;;;;;;1.20;1.20;;;10.10;89.60;;;;;;5030267;28;20650;-78
2023/05/13 03:48:39;;;;;;;1.25;1.15;;;10.10;89.70;;;;;;5028643;28;20643;-77
2023/05/13 03:51:05;;;;;;;1.17;1.17;;;10.10;89.70;;;;;;5029424;28;20267;-79
2023/05/13 03:53:31;;;;;;;1.23;1.13;;;10.20;89.70;;;;;;5027611;28;20207;-77
2023/05/13 03:55:57;;;;;;;1.50;1.42;;;10.20;89.70;;;;;;5030039;28;20188;-77
2023/05/13 03:58:22;;;;;;;1.38;1.35;;;10.20;89.40;;;;;;5030629;28;20231;-76
2023/05/13 04:00:48;;;;;;;1.42;1.42;;;10.30;89.10;;;;;;5027675;28;20234;-77
2023/05/13 04:03:16;;;;;;;1.20;1.20;;;10.30;89.10;;;;;;5027400;28;20184;-77
2023/05/13 04:05:42;;;;;;;1.20;1.08;;;10.40;89.00;;;;;;5026924;28;20732;-77
2023/05/13 04:08:07;;;;;;;1.02;0.90;;;10.40;88.80;;;;;;5022525;28;20222;-76
2023/05/13 04:10:34;;;;;;;1.10;1.00;;;10.40;88.50;;;;;;5030716;28;20204;-77
2023/05/13 04:12:59;;;;;;;3.30;1.13;;;10.40;87.90;;;;;;5028695;28;20678;-76
2023/05/13 04:15:25;;;;;;;0.90;0.90;;;10.40;87.30;;;;;;5024295;28;20222;-77
2023/05/13 04:17:51;;;;;;;1.15;1.15;;;10.40;87.00;;;;;;5029454;28;20218;-77
2023/05/13 04:20:17;;;;;;;1.45;1.08;;;10.50;86.50;;;;;;5030225;28;20812;-78
2023/05/13 04:22:42;;;;;;;1.10;1.10;;;10.50;86.20;;;;;;5030131;28;20179;-77
2023/05/13 04:25:08;;;;;;;1.02;0.98;;;10.50;85.90;;;;;;5027578;28;20184;-77
2023/05/13 04:27:34;;;;;;;3.85;1.58;;;10.60;85.50;;;;;;5028047;28;20969;-76
2023/05/13 04:30:00;;;;;;;1.10;1.10;;;10.60;84.50;;;;;;5030667;28;20184;-77
2023/05/13 04:32:26;;;;;;;0.90;0.90;;;10.60;85.50;;;;;;5028040;28;20188;-78
2023/05/13 04:34:52;;;;;;;1.48;0.80;;;10.70;85.80;;;;;;5026213;28;20187;-78
2023/05/13 04:37:18;;;;;;;2.05;1.02;;;10.70;86.10;;;;;;5026055;28;20329;-78
2023/05/13 04:39:47;;;;;;;1.05;1.05;;;10.80;86.30;;;;;;5029011;28;20288;-78
2023/05/13 04:42:16;;;;;;;2.97;1.05;;;10.80;86.30;;;;;;5028938;28;20672;-78
2023/05/13 04:44:42;;;;;;;3.60;1.00;;;10.90;86.30;;;;;;5027695;28;20207;-78
2023/05/13 04:47:08;;;;;;;1.30;1.02;;;10.90;86.20;;;;;;5026982;28;20662;-77
2023/05/13 04:49:34;;;;;;;1.17;1.17;;;11.00;86.30;;;;;;5028362;28;20188;-77
2023/05/13 04:52:03;;;;;;;6.93;1.73;;;11.10;86.50;;;;;;5030462;28;20233;-77
2023/05/13 04:54:29;;;;;;;5.18;2.05;;;11.10;85.60;;;;;;5027912;28;20184;-79
2023/05/13 04:56:55;;;;;;;1.85;1.63;;;11.10;84.50;;;;;;5027905;28;20187;-77
2023/05/13 04:59:21;;;;;;;2.03;1.35;;;11.20;85.00;;;;;;5031617;28;20239;-77
2023/05/13 05:01:46;;;;;;;2.45;1.10;;;11.20;83.10;;;;;;5022934;28;20575;-78
2023/05/13 05:04:12;;;;;;;5.40;1.35;;;11.20;83.20;;;;;;5026863;28;20180;-79
2023/05/13 05:06:37;;;;;;;1.58;1.58;;;11.20;82.30;;;;;;5028818;28;20176;-78
2023/05/13 05:09:04;;;;;;;1.20;1.20;;;11.20;82.90;;;;;;5027040;28;20271;-78
2023/05/13 05:11:29;;;;;;;2.03;1.65;;;11.30;82.80;;;;;;5028476;28;20665;-79
2023/05/13 05:13:55;;;;;;;1.58;1.42;;;11.30;80.90;;;;;;5030164;28;20195;-78
2023/05/13 05:16:21;;;;;;;2.05;1.40;;;11.40;81.00;;;;;;5028487;28;20185;-77
2023/05/13 05:18:46;;;;;;;2.15;1.40;;;11.40;79.50;;;;;;5027172;28;20215;-79
2023/05/13 05:21:12;;;;;;;1.90;1.75;;;11.40;81.10;;;;;;5027730;28;20223;-79
2023/05/13 05:23:38;;;;;;;1.70;1.70;;;11.50;81.50;;;;;;5028960;28;20751;-78
2023/05/13 05:26:04;;;;;;;1.55;1.50;;;11.50;81.00;;;;;;5016742;28;20285;-79
2023/05/13 05:28:30;;;;;;;1.33;1.33;;;11.60;80.80;;;;;;5025307;28;20219;-79
2023/05/13 05:30:56;;;;;;;2.70;1.55;;;11.60;81.20;;;;;;5028819;28;20179;-78
2023/05/13 05:33:22;;;;;;;1.88;1.58;;;11.70;81.40;;;;;;5027746;28;20650;-79
2023/05/13 05:35:48;;;;;;;1.55;1.38;;;11.90;80.60;;;;;;5029005;28;20175;-79
2023/05/13 05:38:14;;;;;;;1.60;1.50;;;12.00;79.90;;;;;;5028323;28;20208;-80
2023/05/13 05:40:41;;;;;;;1.60;1.50;;;12.10;79.90;;;;;;5029781;28;20234;-80
2023/05/13 05:43:09;;;;;;;1.42;1.42;;;12.30;80.00;;;;;;5026792;28;20200;-80
2023/05/13 05:45:35;;;;;;;1.95;1.85;;;12.40;79.70;;;;;;5027735;28;20180;-79
2023/05/13 05:48:01;;;;;;;1.35;1.35;;;12.50;78.60;;;;;;5025378;28;20177;-81
2023/05/13 05:50:28;;;;;;;1.52;1.52;;;12.60;77.80;;;;;;5027779;28;20234;-79
2023/05/13 05:52:53;;;;;;;1.85;1.75;;;12.70;77.60;;;;;;5024722;28;20250;-79
2023/05/13 05:55:19;;;;;;;1.63;1.52;;;12.60;76.50;;;;;;5032751;28;20191;-79
2023/05/13 05:57:45;;;;;;;1.58;1.58;;;12.60;76.60;;;;;;5028133;28;21541;-80
2023/05/13 06:00:12;;;;;;;1.70;1.70;;;12.70;76.40;;;;;;5032346;28;20192;-79
2023/05/13 06:02:39;;;;;;;1.80;1.80;;;12.70;76.20;;;;;;5030084;28;20246;-79
2023/05/13 06:05:05;;;;;;;1.83;1.80;;;12.70;75.60;;;;;;5031263;28;20176;-79
2023/05/13 06:07:31;;;;;;;1.60;1.50;;;12.80;75.40;;;;;;5030944;28;20277;-80
2023/05/13 06:09:56;;;;;;;2.35;1.83;;;12.70;75.80;;;;;;5029419;28;20255;-79
2023/05/13 06:12:22;;;;;;;1.77;1.67;;;12.70;76.50;;;;;;5032662;28;20215;-80
2023/05/13 06:14:48;;;;;;;1.85;1.75;;;12.70;76.70;;;;;;5029855;28;20942;-79
2023/05/13 06:17:14;;;;;;;1.52;1.52;;;12.70;76.10;;;;;;5032580;28;20211;-80
2023/05/13 06:19:41;;;;;;;1.65;1.58;;;12.60;76.20;;;;;;5030135;28;20239;-79
2023/05/13 06:22:08;;;;;;;1.52;1.42;;;12.70;76.10;;;;;;5039626;28;20180;-80
2023/05/13 06:24:34;;;;;;;1.90;1.70;;;12.80;76.10;;;;;;5027586;28;20186;-84
2023/05/13 06:27:00;;;;;;;1.92;1.83;;;12.90;76.50;;;;;;5032468;28;20263;-82
2023/05/13 06:29:26;;;;;;;1.73;1.73;;;13.10;76.60;;;;;;5035754;28;20214;-77
2023/05/13 06:31:52;;;;;;;2.10;1.95;;;13.30;75.60;;;;;;5024374;28;20471;-78
2023/05/13 06:34:18;;;;;;;1.85;1.75;;;13.50;74.00;;;;;;5023423;28;20630;-78
2023/05/13 06:36:43;;;;;;;1.58;1.48;;;13.60;73.90;;;;;;5028048;28;20195;-77
2023/05/13 06:39:10;;;;;;;2.05;1.67;;;13.70;72.60;;;;;;5031668;28;20212;-79
2023/05/13 06:41:37;;;;;;;1.77;1.77;;;13.80;71.20;;;;;;5033109;28;20610;-77
2023/05/13 06:44:02;;;;;;;1.63;1.63;;;13.90;71.20;;;;;;5031104;28;20176;-78
2023/05/13 06:46:28;;;;;;;1.60;1.58;;;14.00;71.10;;;;;;5032259;28;20737;-78
2023/05/13 06:48:55;;;;;;;1.30;1.30;;;14.10;71.30;;;;;;5031458;28;20670;-78
2023/05/13 06:51:21;;;;;;;1.40;1.40;;;14.20;71.00;;;;;;5035335;28;20337;-78
2023/05/13 06:53:47;;;;;;;4.22;1.40;;;14.30;71.50;;;;;;5032499;28;20215;-79
2023/05/13 06:56:13;;;;;;;2.80;1.75;;;14.40;71.10;;;;;;5032687;28;20640;-77
2023/05/13 06:58:38;;;;;;;4.88;1.55;;;14.50;70.70;;;;;;5033957;28;20693;-78
2023/05/13 07:01:04;;;;;;;3.30;1.50;;;14.60;70.30;;;;;;5031528;28;20173;-77
2023/05/13 07:03:30;;;;;;;2.63;1.25;;;14.70;69.70;;;;;;5031514;28;20203;-78
2023/05/13 07:05:56;;;;;;;1.80;1.40;;;14.80;67.90;;;;;;5032124;28;20189;-78
2023/05/13 07:08:22;;;;;;;1.27;1.27;;;14.80;66.90;;;;;;5031825;28;20238;-78
2023/05/13 07:10:47;;;;;;;1.77;1.67;;;14.80;66.50;;;;;;5033780;28;20180;-78
2023/05/13 07:13:13;;;;;;;1.35;1.25;;;14.80;67.20;;;;;;5032237;28;20173;-78
2023/05/13 07:15:39;;;;;;;1.35;1.30;;;14.90;66.70;;;;;;5037956;28;20198;-77
2023/05/13 07:18:05;;;;;;;1.63;1.33;;;14.90;66.80;;;;;;5030203;28;20874;-77
2023/05/13 07:20:31;;;;;;;1.73;1.63;;;15.00;67.70;;;;;;5031171;28;20189;-77
2023/05/13 07:22:57;;;;;;;1.48;1.38;;;15.10;69.50;;;;;;5026161;28;20571;-77
2023/05/13 07:25:23;;;;;;;2.38;1.63;;;15.10;68.40;;;;;;5026473;28;20611;-79
2023/05/13 07:27:49;;;;;;;1.75;1.70;;;15.20;69.00;;;;;;5029250;28;20808;-79
2023/05/13 07:30:14;;;;;;;1.40;1.38;;;15.30;68.90;;;;;;5031066;28;20210;-78
2023/05/13 07:32:40;;;;;;;1.23;1.13;;;15.40;68.70;;;;;;5034134;28;20255;-79
2023/05/13 07:35:07;;;;;;;2.08;1.85;;;15.50;66.00;;;;;;5028908;28;20189;-78
2023/05/13 07:37:33;;;;;;;1.58;1.58;;;15.60;66.50;;;;;;5028505;28;20192;-78
2023/05/13 07:39:59;;;;;;;1.48;1.42;;;15.80;66.10;;;;;;5030963;28;20728;-79
2023/05/13 07:42:27;;;;;;;3.90;1.48;;;15.90;66.10;;;;;;5030643;28;20176;-79
2023/05/13 07:44:52;;;;;;;3.53;1.75;;;16.00;66.70;;;;;;5026366;28;20210;-81
2023/05/13 07:47:18;;;;;;;1.70;1.60;;;16.20;67.10;;;;;;5029618;28;20643;-79
2023/05/13 07:49:43;;;;;;;1.45;1.45;;;16.30;65.20;;;;;;5030064;28;20620;-79
2023/05/13 07:52:09;;;;;;;1.92;1.73;;;16.50;65.00;;;;;;5029790;28;20205;-80
2023/05/13 07:54:35;;;;;;;1.35;1.35;;;16.60;64.10;;;;;;5027802;28;20184;-80
2023/05/13 07:57:01;;;;;;;1.45;1.30;;;16.70;64.30;;;;;;5026530;28;20188;-80
2023/05/13 07:59:27;;;;;;;1.95;1.88;;;16.90;64.40;;;;;;5030247;28;20203;-80
2023/05/13 08:01:52;;;;;;;1.27;1.17;;;17.00;64.00;;;;;;5031854;28;20177;-80
2023/05/13 08:04:18;;;;;;;2.40;1.35;;;17.10;64.60;;;;;;5053958;28;20570;-80
2023/05/13 08:06:44;;;;;;;1.80;1.60;;;17.10;64.60;;;;;;5032054;28;20662;-80
2023/05/13 08:09:11;;;;;;;1.52;1.45;;;17.20;66.30;;;;;;5032100;28;20216;-80
2023/05/13 08:11:37;;;;;;;1.42;1.42;;;17.00;65.20;;;;;;5029340;28;20208;-78
2023/05/13 08:14:03;;;;;;;1.42;1.33;;;16.90;64.90;;;;;;5029440;28;20183;-79
2023/05/13 08:16:29;;;;;;;1.70;1.60;;;16.80;64.70;;;;;;5024952;28;20180;-78
2023/05/13 08:18:56;;;;;;;1.48;1.48;;;16.70;66.00;;;;;;5019281;28;20217;-79
2023/05/13 08:21:22;;;;;;;2.03;1.85;;;16.60;66.40;;;;;;5025890;28;20582;-79
2023/05/13 08:23:50;;;;;;;1.55;1.45;;;16.50;67.10;;;;;;5034169;28;20168;-80
2023/05/13 08:26:16;;;;;;;2.00;1.77;;;16.40;66.20;;;;;;5029748;28;20184;-79
2023/05/13 08:28:42;;;;;;;2.22;2.13;;;16.30;66.60;;;;;;5031444;28;20880;-79
2023/05/13 08:31:09;;;;;;;1.67;1.67;;;16.30;67.60;;;;;;5027777;28;20172;-80
2023/05/13 08:33:35;;;;;;;3.85;1.77;;;16.20;67.00;;;;;;5030456;28;20834;-78
2023/05/13 08:36:01;;;;;;;2.85;1.73;;;16.20;67.60;;;;;;5032220;28;20180;-77
2023/05/13 08:38:27;;;;;;;2.03;1.92;;;16.10;67.70;;;;;;5027445;28;20216;-78
2023/05/13 08:40:52;;;;;;;2.25;2.05;;;16.10;67.40;;;;;;5028993;28;20575;-77
2023/05/13 08:43:18;;;;;;;1.98;1.85;;;16.20;69.20;;;;;;5028658;28;20821;-79
2023/05/13 08:45:46;;;;;;;2.30;2.20;;;16.20;68.80;;;;;;5020782;28;20230;-77
2023/05/13 08:48:15;;;;;;;2.25;2.15;;;16.30;69.20;;;;;;5030147;28;20272;-79
2023/05/13 08:50:41;;;;;;;2.55;2.35;;;16.30;68.80;;;;;;5029756;28;20191;-78
2023/05/13 08:53:08;;;;;;;3.80;2.00;;;16.30;68.70;;;;;;5029601;28;20603;-77
2023/05/13 08:55:34;;;;;;;3.25;2.25;;;16.40;69.40;;;;;;5023596;28;20195;-78
2023/05/13 08:58:00;;;;;;;2.97;2.08;;;16.40;69.70;;;;;;5027215;28;20192;-78
2023/05/13 09:00:25;;;;;;;2.03;1.92;;;16.50;69.50;;;;;;5035165;28;20199;-77
2023/05/13 09:02:51;;;;;;;2.05;1.83;;;16.60;69.20;;;;;;5032238;28;20184;-77
2023/05/13 09:05:17;;;;;;;3.47;3.10;;;16.70;69.50;;;;;;5031878;28;20188;-78
2023/05/13 09:07:43;;;;;;;2.42;2.33;;;16.80;68.20;;;;;;5028149;28;20242;-78
2023/05/13 09:10:09;;;;;;;3.33;2.50;;;16.90;68.10;;;;;;5026702;28;20710;-78
2023/05/13 09:12:42;;;;;;;2.28;2.17;;;16.90;68.50;;;;;;5025910;28;20299;-77
2023/05/13 09:15:09;;;;;;;4.60;2.28;;;16.90;68.60;;;;;;5024108;28;20192;-78
2023/05/13 09:17:38;;;;;;;2.40;2.30;;;17.10;69.40;;;;;;5033689;28;20351;-76
2023/05/13 09:20:08;;;;;;;2.20;2.10;;;17.20;70.00;;;;;;5033791;28;20283;-77
2023/05/13 09:22:34;;;;;;;1.55;1.55;;;17.30;70.30;;;;;;5043063;28;20602;-77
2023/05/13 09:25:00;;;;;;;3.28;1.80;;;17.50;69.30;;;;;;5029394;28;20249;-77
2023/05/13 09:27:40;;;;;;;1.95;1.83;;;17.60;68.70;;;;;;5027346;28;20263;-76
2023/05/13 09:30:06;;;;;;;2.67;2.30;;;17.80;69.50;;;;;;5039353;28;20198;-76
2023/05/13 09:32:32;;;;;;;2.55;2.35;;;17.90;67.70;;;;;;5031313;28;20242;-77
2023/05/13 09:35:15;;;;;;;2.97;2.60;;;18.10;66.70;;;;;;5029221;28;20176;-79
2023/05/13 09:37:43;;;;;;;2.45;2.35;;;18.30;66.80;;;;;;5025643;28;20214;-79
2023/05/13 09:40:12;;;;;;;2.13;2.03;;;18.50;66.20;;;;;;5024571;28;20914;-79
2023/05/13 09:42:45;;;;;;;3.58;2.08;;;18.80;66.90;;;;;;5020392;28;20187;-78
2023/05/13 09:45:12;;;;;;;2.38;2.20;;;19.00;66.80;;;;;;5032189;28;20267;-79
2023/05/13 09:47:39;;;;;;;2.88;2.63;;;19.40;66.50;;;;;;5026572;28;20784;-79
2023/05/13 09:50:06;;;;;;;2.33;2.28;;;19.70;63.20;;;;;;5025038;28;20180;-80
2023/05/13 09:52:34;;;;;;;2.38;2.20;;;19.90;63.20;;;;;;5028183;28;20196;-78
2023/05/13 09:55:03;;;;;;;1.98;1.98;;;20.00;62.60;;;;;;5022808;28;20647;-78
2023/05/13 09:57:30;;;;;;;2.47;2.38;;;20.10;62.80;;;;;;5021466;28;20650;-78
2023/05/13 10:00:05;;;;;;;2.70;2.42;;;20.20;63.40;;;;;;5025220;28;20552;-80
2023/05/13 10:02:31;;;;;;;2.60;2.50;;;20.30;61.80;;;;;;5025235;28;20207;-77
2023/05/13 10:04:57;;;;;;;2.28;2.10;;;20.30;62.00;;;;;;5025057;28;20189;-77
2023/05/13 10:07:24;;;;;;;2.22;2.05;;;20.40;63.60;;;;;;5026202;28;20172;-80
2023/05/13 10:09:53;;;;;;;2.38;2.20;;;20.40;63.90;;;;;;5025451;28;20176;-82
2023/05/13 10:12:21;;;;;;;2.35;1.95;;;20.50;63.80;;;;;;5027920;28;20279;-80
2023/05/13 10:14:50;;;;;;;2.05;2.03;;;20.60;64.50;;;;;;5026057;28;20172;-82
2023/05/13 10:17:21;;;;;;;2.63;2.40;;;20.70;63.20;;;;;;5027155;28;20184;-81
2023/05/13 10:19:51;;;;;;;3.25;3.05;;;21.00;62.70;;;;;;5033457;28;20216;-81
2023/05/13 10:22:28;;;;;;;3.72;2.60;;;21.20;60.70;;;;;;5025836;28;20235;-81
2023/05/13 10:24:58;;;;;;;2.80;2.70;;;21.30;60.70;;;;;;5028003;28;20555;-81
2023/05/13 10:27:29;;;;;;;2.53;2.35;;;21.70;60.90;;;;;;5018495;28;20183;-82
2023/05/13 10:29:56;;;;;;;2.28;2.17;;;22.10;61.80;;;;;;5024368;28;20214;-81
2023/05/13 10:32:29;;;;;;;1.88;1.88;;;22.50;60.90;;;;;;5025808;28;20594;-81
2023/05/13 10:35:01;;;;;;;2.10;2.00;;;22.80;60.00;;;;;;5027370;28;20738;-82
2023/05/13 10:37:51;;;;;;;2.47;2.25;;;23.20;59.50;;;;;;5016964;28;20673;-81
2023/05/13 10:40:35;;;;;;;8.23;2.28;;;23.50;58.60;;;;;;5024810;28;20216;-82
2023/05/13 10:43:09;;;;;;;2.33;2.22;;;23.80;58.20;;;;;;5025172;28;20602;-81
2023/05/13 10:45:34;;;;;;;1.98;1.88;;;24.10;57.10;;;;;;5029240;28;20176;-82
2023/05/13 10:48:07;;;;;;;2.42;2.33;;;24.40;57.30;;;;;;5039133;28;20196;-81
2023/05/13 10:50:37;;;;;;;2.22;2.15;;;24.80;57.90;;;;;;5032228;28;20184;-83
2023/05/13 10:53:16;;;;;;;2.85;2.65;;;25.20;57.60;;;;;;5031935;28;20172;-82
2023/05/13 10:55:45;;;;;;;3.17;2.67;;;25.90;57.20;;;;;;5026741;28;20188;-82
2023/05/13 10:58:15;;;;;;;3.13;2.90;;;26.40;55.20;;;;;;5030415;28;20255;-81
2023/05/13 11:00:43;;;;;;;2.38;2.28;;;26.40;53.10;;;;;;5021591;28;20181;-80
2023/05/13 11:03:13;;;;;;;2.53;2.42;;;26.80;55.70;;;;;;5025520;28;20261;-77
2023/05/13 11:05:42;;;;;;;2.92;2.72;;;27.20;52.90;;;;;;5027402;28;20597;-77
2023/05/13 11:08:08;;;;;;;2.97;2.88;;;27.40;53.10;;;;;;5024430;28;20843;-78
2023/05/13 11:10:33;;;;;;;2.95;2.75;;;27.90;52.80;;;;;;5027534;28;20180;-77
2023/05/13 11:13:20;;;;;;;4.32;2.40;;;28.30;51.60;;;;;;5030590;28;20196;-78
2023/05/13 11:15:51;;;;;;;2.67;2.58;;;29.00;51.20;;;;;;5030698;28;20171;-80
2023/05/13 11:18:19;;;;;;;2.65;2.65;;;29.50;49.80;;;;;;5029301;28;20558;-80
2023/05/13 11:20:51;;;;;;;3.05;2.88;;;29.80;48.40;;;;;;5029122;28;20183;-79
2023/05/13 11:23:19;;;;;;;3.10;2.90;;;30.10;48.20;;;;;;5030396;28;20271;-79
2023/05/13 11:25:46;;;;;;;2.38;1.92;;;30.40;49.50;;;;;;5030346;28;20728;-79
2023/05/13 11:28:17;;;;;;;2.53;2.42;;;30.60;49.00;;;;;;5030404;28;20187;-79
2023/05/13 11:30:53;;;;;;;2.10;2.10;;;31.00;49.10;;;;;;5029181;28;20203;-79
2023/05/13 11:33:20;;;;;;;2.50;2.40;;;31.40;47.70;;;;;;5033521;28;20183;-78
2023/05/13 11:35:54;;;;;;;3.92;2.35;;;31.80;47.50;;;;;;5029370;28;20180;-77
2023/05/13 11:38:24;;;;;;;2.42;2.33;;;32.00;47.50;;;;;;5029898;28;20389;-77
2023/05/13 11:40:51;;;;;;;2.15;2.08;;;32.30;49.70;;;;;;5025825;28;20191;-80
2023/05/13 11:43:20;;;;;;;2.63;2.53;;;32.60;51.40;;;;;;5030166;28;20700;-79
2023/05/13 11:45:46;;;;;;;2.40;2.10;;;32.50;46.80;;;;;;5037979;28;20179;-77
2023/05/13 11:48:19;;;;;;;2.47;2.45;;;32.80;46.90;;;;;;5032926;28;20191;-77
2023/05/13 11:50:45;;;;;;;2.47;2.47;;;33.00;44.80;;;;;;5030360;28;20171;-80
2023/05/13 11:53:11;;;;;;;2.42;2.30;;;32.50;44.40;;;;;;5029856;28;20176;-80
2023/05/13 11:55:36;;;;;;;2.03;1.90;;;31.90;45.90;;;;;;5030490;28;20184;-80
2023/05/13 11:58:02;;;;;;;2.38;2.28;;;31.70;46.40;;;;;;5030033;28;20184;-80
2023/05/13 12:00:33;;;;;;;2.13;2.05;;;31.90;46.70;;;;;;5029418;28;20188;-80
2023/05/13 12:03:00;;;;;;;2.50;2.40;;;31.70;48.50;;;;;;5028116;28;20259;-80
2023/05/13 12:05:26;;;;;;;4.68;2.47;;;31.30;45.60;;;;;;5030178;28;20180;-80
2023/05/13 12:07:56;;;;;;;2.63;2.60;;;31.30;48.20;;;;;;5030327;28;20176;-82
2023/05/13 12:10:23;;;;;;;2.10;2.10;;;31.60;46.40;;;;;;5030446;28;20188;-81
2023/05/13 12:12:49;;;;;;;2.15;2.05;;;31.90;48.00;;;;;;5030217;28;20254;-81
2023/05/13 12:15:17;;;;;;;2.20;2.10;;;32.30;47.50;;;;;;5030291;28;20658;-81
2023/05/13 12:17:43;;;;;;;3.13;2.20;;;32.90;50.20;;;;;;5029388;28;20730;-81
2023/05/13 12:20:10;;;;;;;2.20;2.10;;;33.40;49.00;;;;;;5030124;28;20215;-81
2023/05/13 12:22:56;;;;;;;1.85;1.83;;;33.70;47.20;;;;;;5028112;28;20176;-81
2023/05/13 12:25:34;;;;;;;1.98;1.95;;;33.70;45.30;;;;;;5029786;28;20184;-81
2023/05/13 12:28:12;;;;;;;2.30;2.20;;;33.70;44.50;;;;;;5030265;28;20179;-81
2023/05/13 12:30:40;;;;;;;1.98;1.88;;;33.70;46.80;;;;;;5030077;28;20183;-81
2023/05/13 12:33:15;;;;;;;2.58;2.40;;;34.00;47.30;;;;;;5033120;28;20302;-81
2023/05/13 12:35:42;;;;;;;2.05;2.05;;;34.20;43.30;;;;;;5028610;28;20183;-82
2023/05/13 12:38:12;;;;;;;2.13;2.03;;;34.00;43.60;;;;;;5029701;28;20200;-81
2023/05/13 12:40:38;;;;;;;2.05;2.03;;;33.70;45.90;;;;;;5029845;28;20179;-82
2023/05/13 12:43:03;;;;;;;2.22;2.03;;;33.40;46.60;;;;;;5029800;28;20175;-82
2023/05/13 12:45:31;;;;;;;2.13;2.13;;;33.20;45.50;;;;;;5029942;28;20267;-81
2023/05/13 12:47:58;;;;;;;1.80;1.80;;;33.10;49.40;;;;;;5028495;28;20627;-82
2023/05/13 12:50:24;;;;;;;2.05;1.95;;;33.20;44.80;;;;;;5029810;28;20562;-81